sensor_id;sensor_type;location;lat;lon;timestamp;P1;durP1;ratioP1;P2;durP2;ratioP2
17524;SDS011;40431;52.198;9.902;2023-02-01T00:01:41;10.63;;;4.30;;
17524;SDS011;40431;52.198;9.902;2023-02-01T00:04:07;13.33;;;4.63;;
17524;SDS011;40431;52.198;9.902;2023-02-01T00:06:34;10.47;;;4.80;;
17524;SDS011;40431;52.198;9.902;2023-02-01T00:09:00;18.83;;;5.50;;
17524;SDS011;40431;52.198;9.902;2023-02-01T00:11:29;14.93;;;4.90;;
17524;SDS011;40431;52.198;9.902;2023-02-01T00:13:56;15.20;;;4.97;;
17524;SDS011;40431;52.198;9.902;2023-02-01T00:16:23;8.40;;;4.13;;
17524;SDS011;40431;52.198;9.902;2023-02-01T00:18:51;16.80;;;4.63;;
17524;SDS011;40431;52.198;9.902;2023-02-01T00:21:22;11.07;;;4.57;;
17524;SDS011;40431;52.198;9.902;2023-02-01T00:23:48;17.03;;;4.47;;
17524;SDS011;40431;52.198;9.902;2023-02-01T00:26:16;8.93;;;4.80;;
17524;SDS011;40431;52.198;9.902;2023-02-01T00:28:45;12.17;;;4.77;;
17524;SDS011;40431;52.198;9.902;2023-02-01T00:31:11;16.40;;;4.23;;
17524;SDS011;40431;52.198;9.902;2023-02-01T00:33:38;12.90;;;4.43;;
17524;SDS011;40431;52.198;9.902;2023-02-01T00:36:05;10.80;;;5.70;;
17524;SDS011;40431;52.198;9.902;2023-02-01T00:38:34;15.10;;;4.87;;
17524;SDS011;40431;52.198;9.902;2023-02-01T00:41:03;12.23;;;4.97;;
17524;SDS011;40431;52.198;9.902;2023-02-01T00:43:31;14.73;;;6.17;;
17524;SDS011;40431;52.198;9.902;2023-02-01T00:45:59;11.80;;;4.70;;
17524;SDS011;40431;52.198;9.902;2023-02-01T00:48:26;8.90;;;5.03;;
17524;SDS011;40431;52.198;9.902;2023-02-01T00:50:53;14.53;;;5.03;;
17524;SDS011;40431;52.198;9.902;2023-02-01T00:53:19;20.70;;;6.23;;
17524;SDS011;40431;52.198;9.902;2023-02-01T00:55:46;14.43;;;5.43;;
17524;SDS011;40431;52.198;9.902;2023-02-01T00:58:13;9.50;;;4.00;;
17524;SDS011;40431;52.198;9.902;2023-02-01T01:00:40;10.80;;;5.00;;
17524;SDS011;40431;52.198;9.902;2023-02-01T01:03:08;14.73;;;5.60;;
17524;SDS011;40431;52.198;9.902;2023-02-01T01:05:43;15.17;;;4.70;;
17524;SDS011;40431;52.198;9.902;2023-02-01T01:08:10;12.13;;;5.30;;
17524;SDS011;40431;52.198;9.902;2023-02-01T01:10:36;16.00;;;5.77;;
17524;SDS011;40431;52.198;9.902;2023-02-01T01:13:02;14.17;;;5.43;;
17524;SDS011;40431;52.198;9.902;2023-02-01T01:15:29;15.00;;;4.87;;
17524;SDS011;40431;52.198;9.902;2023-02-01T01:17:55;19.63;;;6.10;;
17524;SDS011;40431;52.198;9.902;2023-02-01T01:20:23;16.33;;;4.60;;
17524;SDS011;40431;52.198;9.902;2023-02-01T01:22:49;10.27;;;4.63;;
17524;SDS011;40431;52.198;9.902;2023-02-01T01:25:16;10.60;;;4.53;;
17524;SDS011;40431;52.198;9.902;2023-02-01T01:27:42;14.50;;;5.60;;
17524;SDS011;40431;52.198;9.902;2023-02-01T01:30:09;14.03;;;4.77;;
17524;SDS011;40431;52.198;9.902;2023-02-01T01:32:36;8.43;;;4.33;;
17524;SDS011;40431;52.198;9.902;2023-02-01T01:35:02;15.80;;;5.33;;
17524;SDS011;40431;52.198;9.902;2023-02-01T01:37:31;9.27;;;4.87;;
17524;SDS011;40431;52.198;9.902;2023-02-01T01:39:57;10.67;;;4.37;;
17524;SDS011;40431;52.198;9.902;2023-02-01T01:42:24;11.93;;;4.53;;
17524;SDS011;40431;52.198;9.902;2023-02-01T01:44:57;14.97;;;4.63;;
17524;SDS011;40431;52.198;9.902;2023-02-01T01:47:29;10.97;;;5.40;;
17524;SDS011;40431;52.198;9.902;2023-02-01T01:50:00;19.73;;;7.23;;
17524;SDS011;40431;52.198;9.902;2023-02-01T01:52:27;18.13;;;5.40;;
17524;SDS011;40431;52.198;9.902;2023-02-01T01:54:55;7.87;;;3.87;;
17524;SDS011;40431;52.198;9.902;2023-02-01T01:57:25;14.93;;;5.63;;
17524;SDS011;40431;52.198;9.902;2023-02-01T02:00:01;12.97;;;4.80;;
17524;SDS011;40431;52.198;9.902;2023-02-01T02:02:32;15.77;;;5.77;;
17524;SDS011;40431;52.198;9.902;2023-02-01T02:04:58;14.97;;;6.17;;
17524;SDS011;40431;52.198;9.902;2023-02-01T02:07:25;17.97;;;7.10;;
17524;SDS011;40431;52.198;9.902;2023-02-01T02:09:55;11.43;;;4.87;;
17524;SDS011;40431;52.198;9.902;2023-02-01T02:12:22;11.27;;;5.17;;
17524;SDS011;40431;52.198;9.902;2023-02-01T02:14:49;15.23;;;4.73;;
17524;SDS011;40431;52.198;9.902;2023-02-01T02:17:22;9.97;;;5.10;;
17524;SDS011;40431;52.198;9.902;2023-02-01T02:20:07;12.70;;;4.90;;
17524;SDS011;40431;52.198;9.902;2023-02-01T02:26:10;15.87;;;5.80;;
17524;SDS011;40431;52.198;9.902;2023-02-01T02:32:04;14.80;;;4.83;;
17524;SDS011;40431;52.198;9.902;2023-02-01T02:34:53;15.03;;;5.07;;
17524;SDS011;40431;52.198;9.902;2023-02-01T02:37:25;15.20;;;4.93;;
17524;SDS011;40431;52.198;9.902;2023-02-01T02:40:01;11.37;;;5.47;;
17524;SDS011;40431;52.198;9.902;2023-02-01T02:42:34;14.43;;;5.10;;
17524;SDS011;40431;52.198;9.902;2023-02-01T02:45:27;14.43;;;5.30;;
17524;SDS011;40431;52.198;9.902;2023-02-01T02:48:17;11.53;;;4.60;;
17524;SDS011;40431;52.198;9.902;2023-02-01T02:50:50;11.27;;;5.60;;
17524;SDS011;40431;52.198;9.902;2023-02-01T02:53:43;16.17;;;5.37;;
17524;SDS011;40431;52.198;9.902;2023-02-01T02:56:34;18.70;;;5.43;;
17524;SDS011;40431;52.198;9.902;2023-02-01T02:59:19;15.27;;;5.03;;
17524;SDS011;40431;52.198;9.902;2023-02-01T03:02:06;12.27;;;4.73;;
17524;SDS011;40431;52.198;9.902;2023-02-01T03:04:52;17.07;;;5.30;;
17524;SDS011;40431;52.198;9.902;2023-02-01T03:10:28;12.53;;;5.03;;
17524;SDS011;40431;52.198;9.902;2023-02-01T03:13:02;15.43;;;5.63;;
17524;SDS011;40431;52.198;9.902;2023-02-01T03:15:32;11.87;;;4.87;;
17524;SDS011;40431;52.198;9.902;2023-02-01T03:18:02;13.00;;;5.83;;
17524;SDS011;40431;52.198;9.902;2023-02-01T03:20:33;14.23;;;5.87;;
17524;SDS011;40431;52.198;9.902;2023-02-01T03:23:02;11.30;;;4.77;;
17524;SDS011;40431;52.198;9.902;2023-02-01T03:25:31;18.17;;;5.87;;
17524;SDS011;40431;52.198;9.902;2023-02-01T03:27:59;14.20;;;5.33;;
17524;SDS011;40431;52.198;9.902;2023-02-01T03:30:29;16.07;;;6.17;;
17524;SDS011;40431;52.198;9.902;2023-02-01T03:32:59;12.87;;;4.97;;
17524;SDS011;40431;52.198;9.902;2023-02-01T03:35:29;13.77;;;6.50;;
17524;SDS011;40431;52.198;9.902;2023-02-01T03:38:03;16.27;;;6.90;;
17524;SDS011;40431;52.198;9.902;2023-02-01T03:40:38;14.00;;;5.40;;
17524;SDS011;40431;52.198;9.902;2023-02-01T03:43:07;12.67;;;5.70;;
17524;SDS011;40431;52.198;9.902;2023-02-01T03:45:41;12.20;;;5.90;;
17524;SDS011;40431;52.198;9.902;2023-02-01T03:48:10;9.37;;;4.80;;
17524;SDS011;40431;52.198;9.902;2023-02-01T03:50:40;13.40;;;6.10;;
17524;SDS011;40431;52.198;9.902;2023-02-01T03:53:13;12.70;;;6.33;;
17524;SDS011;40431;52.198;9.902;2023-02-01T03:55:43;14.03;;;6.07;;
17524;SDS011;40431;52.198;9.902;2023-02-01T03:58:11;14.40;;;5.93;;
17524;SDS011;40431;52.198;9.902;2023-02-01T04:00:40;17.03;;;5.47;;
17524;SDS011;40431;52.198;9.902;2023-02-01T04:03:07;12.70;;;5.73;;
17524;SDS011;40431;52.198;9.902;2023-02-01T04:05:33;10.63;;;5.80;;
17524;SDS011;40431;52.198;9.902;2023-02-01T04:08:00;12.73;;;6.33;;
17524;SDS011;40431;52.198;9.902;2023-02-01T04:10:28;13.77;;;5.60;;
17524;SDS011;40431;52.198;9.902;2023-02-01T04:12:54;14.53;;;6.00;;
17524;SDS011;40431;52.198;9.902;2023-02-01T04:15:21;12.23;;;5.73;;
17524;SDS011;40431;52.198;9.902;2023-02-01T04:17:47;14.27;;;6.60;;
17524;SDS011;40431;52.198;9.902;2023-02-01T04:20:13;14.50;;;6.33;;
17524;SDS011;40431;52.198;9.902;2023-02-01T04:22:40;14.67;;;6.77;;
17524;SDS011;40431;52.198;9.902;2023-02-01T04:25:06;17.53;;;6.80;;
17524;SDS011;40431;52.198;9.902;2023-02-01T04:27:35;24.07;;;6.37;;
17524;SDS011;40431;52.198;9.902;2023-02-01T04:30:02;19.00;;;6.23;;
17524;SDS011;40431;52.198;9.902;2023-02-01T04:32:29;13.03;;;5.57;;
17524;SDS011;40431;52.198;9.902;2023-02-01T04:34:55;15.70;;;7.27;;
17524;SDS011;40431;52.198;9.902;2023-02-01T04:37:21;11.50;;;5.93;;
17524;SDS011;40431;52.198;9.902;2023-02-01T04:39:48;15.77;;;7.43;;
17524;SDS011;40431;52.198;9.902;2023-02-01T04:42:14;16.67;;;5.80;;
17524;SDS011;40431;52.198;9.902;2023-02-01T04:44:42;11.70;;;5.53;;
17524;SDS011;40431;52.198;9.902;2023-02-01T04:47:08;14.20;;;5.50;;
17524;SDS011;40431;52.198;9.902;2023-02-01T04:49:35;25.73;;;8.20;;
17524;SDS011;40431;52.198;9.902;2023-02-01T04:52:01;15.70;;;6.43;;
17524;SDS011;40431;52.198;9.902;2023-02-01T04:54:28;9.40;;;5.10;;
17524;SDS011;40431;52.198;9.902;2023-02-01T04:56:54;12.17;;;5.23;;
17524;SDS011;40431;52.198;9.902;2023-02-01T04:59:21;14.13;;;6.67;;
17524;SDS011;40431;52.198;9.902;2023-02-01T05:01:48;16.90;;;5.83;;
17524;SDS011;40431;52.198;9.902;2023-02-01T05:04:15;10.57;;;6.00;;
17524;SDS011;40431;52.198;9.902;2023-02-01T05:06:43;15.33;;;5.73;;
17524;SDS011;40431;52.198;9.902;2023-02-01T05:09:10;17.93;;;7.00;;
17524;SDS011;40431;52.198;9.902;2023-02-01T05:11:36;10.10;;;6.30;;
17524;SDS011;40431;52.198;9.902;2023-02-01T05:14:21;12.67;;;6.73;;
17524;SDS011;40431;52.198;9.902;2023-02-01T05:16:48;9.87;;;5.20;;
17524;SDS011;40431;52.198;9.902;2023-02-01T05:19:15;15.23;;;5.43;;
17524;SDS011;40431;52.198;9.902;2023-02-01T05:21:41;13.60;;;5.93;;
17524;SDS011;40431;52.198;9.902;2023-02-01T05:24:08;15.27;;;6.10;;
17524;SDS011;40431;52.198;9.902;2023-02-01T05:26:40;10.87;;;5.67;;
17524;SDS011;40431;52.198;9.902;2023-02-01T05:29:07;12.37;;;6.33;;
17524;SDS011;40431;52.198;9.902;2023-02-01T05:31:35;14.83;;;5.83;;
17524;SDS011;40431;52.198;9.902;2023-02-01T05:34:03;8.50;;;6.00;;
17524;SDS011;40431;52.198;9.902;2023-02-01T05:36:29;10.90;;;5.10;;
17524;SDS011;40431;52.198;9.902;2023-02-01T05:38:56;8.67;;;5.57;;
17524;SDS011;40431;52.198;9.902;2023-02-01T05:41:23;10.10;;;4.37;;
17524;SDS011;40431;52.198;9.902;2023-02-01T05:43:49;13.67;;;5.07;;
17524;SDS011;40431;52.198;9.902;2023-02-01T05:46:16;10.90;;;5.00;;
17524;SDS011;40431;52.198;9.902;2023-02-01T05:48:42;13.10;;;4.97;;
17524;SDS011;40431;52.198;9.902;2023-02-01T05:51:10;10.67;;;4.90;;
17524;SDS011;40431;52.198;9.902;2023-02-01T05:53:37;8.43;;;5.03;;
17524;SDS011;40431;52.198;9.902;2023-02-01T05:56:04;9.90;;;4.70;;
17524;SDS011;40431;52.198;9.902;2023-02-01T05:58:31;10.83;;;5.17;;
17524;SDS011;40431;52.198;9.902;2023-02-01T06:00:58;8.03;;;4.57;;
17524;SDS011;40431;52.198;9.902;2023-02-01T06:03:25;10.13;;;5.90;;
17524;SDS011;40431;52.198;9.902;2023-02-01T06:05:51;9.43;;;5.37;;
17524;SDS011;40431;52.198;9.902;2023-02-01T06:08:19;10.87;;;4.67;;
17524;SDS011;40431;52.198;9.902;2023-02-01T06:10:45;8.53;;;5.03;;
17524;SDS011;40431;52.198;9.902;2023-02-01T06:13:12;10.07;;;4.97;;
17524;SDS011;40431;52.198;9.902;2023-02-01T06:15:38;14.53;;;6.33;;
17524;SDS011;40431;52.198;9.902;2023-02-01T06:18:07;9.43;;;4.73;;
17524;SDS011;40431;52.198;9.902;2023-02-01T06:20:33;10.77;;;5.70;;
17524;SDS011;40431;52.198;9.902;2023-02-01T06:23:00;7.33;;;4.80;;
17524;SDS011;40431;52.198;9.902;2023-02-01T06:25:27;12.87;;;5.23;;
17524;SDS011;40431;52.198;9.902;2023-02-01T06:27:54;11.80;;;5.00;;
17524;SDS011;40431;52.198;9.902;2023-02-01T06:30:20;7.37;;;4.50;;
17524;SDS011;40431;52.198;9.902;2023-02-01T06:32:49;7.30;;;4.50;;
17524;SDS011;40431;52.198;9.902;2023-02-01T06:35:18;10.57;;;4.87;;
17524;SDS011;40431;52.198;9.902;2023-02-01T06:37:45;7.87;;;4.40;;
17524;SDS011;40431;52.198;9.902;2023-02-01T06:40:11;7.87;;;4.67;;
17524;SDS011;40431;52.198;9.902;2023-02-01T06:42:39;8.07;;;3.70;;
17524;SDS011;40431;52.198;9.902;2023-02-01T06:45:06;6.17;;;3.87;;
17524;SDS011;40431;52.198;9.902;2023-02-01T06:47:33;7.30;;;4.50;;
17524;SDS011;40431;52.198;9.902;2023-02-01T06:49:59;9.23;;;5.03;;
17524;SDS011;40431;52.198;9.902;2023-02-01T06:52:26;9.43;;;4.33;;
17524;SDS011;40431;52.198;9.902;2023-02-01T06:54:52;6.97;;;4.13;;
17524;SDS011;40431;52.198;9.902;2023-02-01T06:57:18;7.00;;;4.57;;
17524;SDS011;40431;52.198;9.902;2023-02-01T06:59:46;9.63;;;5.27;;
17524;SDS011;40431;52.198;9.902;2023-02-01T07:02:12;8.20;;;4.37;;
17524;SDS011;40431;52.198;9.902;2023-02-01T07:04:39;10.53;;;4.60;;
17524;SDS011;40431;52.198;9.902;2023-02-01T07:07:05;8.07;;;3.97;;
17524;SDS011;40431;52.198;9.902;2023-02-01T07:09:32;8.63;;;4.00;;
17524;SDS011;40431;52.198;9.902;2023-02-01T07:11:58;8.37;;;4.33;;
17524;SDS011;40431;52.198;9.902;2023-02-01T07:14:24;9.03;;;5.00;;
17524;SDS011;40431;52.198;9.902;2023-02-01T07:16:52;7.60;;;4.90;;
17524;SDS011;40431;52.198;9.902;2023-02-01T07:19:18;9.33;;;5.10;;
17524;SDS011;40431;52.198;9.902;2023-02-01T07:21:45;12.40;;;5.63;;
17524;SDS011;40431;52.198;9.902;2023-02-01T07:24:11;10.70;;;4.23;;
17524;SDS011;40431;52.198;9.902;2023-02-01T07:26:39;6.97;;;4.40;;
17524;SDS011;40431;52.198;9.902;2023-02-01T07:29:06;7.43;;;4.60;;
17524;SDS011;40431;52.198;9.902;2023-02-01T07:31:32;9.27;;;5.07;;
17524;SDS011;40431;52.198;9.902;2023-02-01T07:34:00;7.20;;;4.27;;
17524;SDS011;40431;52.198;9.902;2023-02-01T07:36:27;8.00;;;4.50;;
17524;SDS011;40431;52.198;9.902;2023-02-01T07:38:54;7.30;;;4.30;;
17524;SDS011;40431;52.198;9.902;2023-02-01T07:41:20;6.67;;;4.03;;
17524;SDS011;40431;52.198;9.902;2023-02-01T07:43:46;10.10;;;4.73;;
17524;SDS011;40431;52.198;9.902;2023-02-01T07:46:13;10.57;;;4.40;;
17524;SDS011;40431;52.198;9.902;2023-02-01T07:48:40;7.20;;;4.13;;
17524;SDS011;40431;52.198;9.902;2023-02-01T07:51:09;6.90;;;5.07;;
17524;SDS011;40431;52.198;9.902;2023-02-01T07:53:38;12.30;;;5.20;;
17524;SDS011;40431;52.198;9.902;2023-02-01T07:56:09;6.43;;;4.63;;
17524;SDS011;40431;52.198;9.902;2023-02-01T07:58:37;7.87;;;5.83;;
17524;SDS011;40431;52.198;9.902;2023-02-01T08:01:04;10.10;;;4.30;;
17524;SDS011;40431;52.198;9.902;2023-02-01T08:03:44;13.07;;;4.83;;
17524;SDS011;40431;52.198;9.902;2023-02-01T08:06:12;9.77;;;4.70;;
17524;SDS011;40431;52.198;9.902;2023-02-01T08:08:39;8.77;;;4.10;;
17524;SDS011;40431;52.198;9.902;2023-02-01T08:11:05;12.63;;;4.47;;
17524;SDS011;40431;52.198;9.902;2023-02-01T08:13:32;16.23;;;6.13;;
17524;SDS011;40431;52.198;9.902;2023-02-01T08:16:00;7.70;;;4.03;;
17524;SDS011;40431;52.198;9.902;2023-02-01T08:18:27;12.87;;;5.20;;
17524;SDS011;40431;52.198;9.902;2023-02-01T08:20:53;8.67;;;4.23;;
17524;SDS011;40431;52.198;9.902;2023-02-01T08:23:21;9.77;;;5.63;;
17524;SDS011;40431;52.198;9.902;2023-02-01T08:25:47;12.03;;;4.77;;
17524;SDS011;40431;52.198;9.902;2023-02-01T08:28:14;12.33;;;4.43;;
17524;SDS011;40431;52.198;9.902;2023-02-01T08:30:41;12.17;;;5.03;;
17524;SDS011;40431;52.198;9.902;2023-02-01T08:33:08;8.37;;;4.50;;
17524;SDS011;40431;52.198;9.902;2023-02-01T08:35:35;12.97;;;4.83;;
17524;SDS011;40431;52.198;9.902;2023-02-01T08:38:02;17.57;;;5.87;;
17524;SDS011;40431;52.198;9.902;2023-02-01T08:40:31;12.27;;;3.83;;
17524;SDS011;40431;52.198;9.902;2023-02-01T08:42:57;6.17;;;3.63;;
17524;SDS011;40431;52.198;9.902;2023-02-01T08:45:26;8.97;;;3.77;;
17524;SDS011;40431;52.198;9.902;2023-02-01T08:47:54;11.43;;;4.80;;
17524;SDS011;40431;52.198;9.902;2023-02-01T08:50:21;9.73;;;4.90;;
17524;SDS011;40431;52.198;9.902;2023-02-01T08:52:48;11.60;;;5.20;;
17524;SDS011;40431;52.198;9.902;2023-02-01T08:55:15;7.47;;;3.67;;
17524;SDS011;40431;52.198;9.902;2023-02-01T08:57:43;8.03;;;4.10;;
17524;SDS011;40431;52.198;9.902;2023-02-01T09:00:11;7.60;;;3.30;;
17524;SDS011;40431;52.198;9.902;2023-02-01T09:02:39;10.20;;;4.37;;
17524;SDS011;40431;52.198;9.902;2023-02-01T09:05:06;8.43;;;3.77;;
17524;SDS011;40431;52.198;9.902;2023-02-01T09:07:33;13.03;;;4.20;;
17524;SDS011;40431;52.198;9.902;2023-02-01T09:10:00;7.40;;;3.83;;
17524;SDS011;40431;52.198;9.902;2023-02-01T09:12:27;9.83;;;3.90;;
17524;SDS011;40431;52.198;9.902;2023-02-01T09:14:55;12.27;;;3.67;;
17524;SDS011;40431;52.198;9.902;2023-02-01T09:17:24;13.00;;;4.30;;
17524;SDS011;40431;52.198;9.902;2023-02-01T09:19:50;11.30;;;4.43;;
17524;SDS011;40431;52.198;9.902;2023-02-01T09:22:17;8.13;;;3.07;;
17524;SDS011;40431;52.198;9.902;2023-02-01T09:24:43;8.53;;;3.77;;
17524;SDS011;40431;52.198;9.902;2023-02-01T09:27:10;8.80;;;3.50;;
17524;SDS011;40431;52.198;9.902;2023-02-01T09:29:36;7.73;;;4.10;;
17524;SDS011;40431;52.198;9.902;2023-02-01T09:32:04;12.97;;;3.63;;
17524;SDS011;40431;52.198;9.902;2023-02-01T09:34:31;7.63;;;4.03;;
17524;SDS011;40431;52.198;9.902;2023-02-01T09:36:58;8.17;;;3.50;;
17524;SDS011;40431;52.198;9.902;2023-02-01T09:39:24;8.60;;;4.07;;
17524;SDS011;40431;52.198;9.902;2023-02-01T09:41:53;10.33;;;4.67;;
17524;SDS011;40431;52.198;9.902;2023-02-01T09:44:29;7.40;;;3.10;;
17524;SDS011;40431;52.198;9.902;2023-02-01T09:47:12;7.60;;;4.17;;
17524;SDS011;40431;52.198;9.902;2023-02-01T09:49:42;11.37;;;4.33;;
17524;SDS011;40431;52.198;9.902;2023-02-01T09:52:24;8.27;;;4.53;;
17524;SDS011;40431;52.198;9.902;2023-02-01T09:54:55;8.53;;;3.87;;
17524;SDS011;40431;52.198;9.902;2023-02-01T09:57:28;11.63;;;3.90;;
17524;SDS011;40431;52.198;9.902;2023-02-01T10:00:09;6.83;;;3.90;;
17524;SDS011;40431;52.198;9.902;2023-02-01T10:02:44;10.97;;;4.90;;
17524;SDS011;40431;52.198;9.902;2023-02-01T10:05:12;9.30;;;4.07;;
17524;SDS011;40431;52.198;9.902;2023-02-01T10:07:42;9.17;;;4.20;;
17524;SDS011;40431;52.198;9.902;2023-02-01T10:10:14;11.07;;;3.80;;
17524;SDS011;40431;52.198;9.902;2023-02-01T10:15:40;11.50;;;4.37;;
17524;SDS011;40431;52.198;9.902;2023-02-01T10:18:23;16.67;;;4.30;;
17524;SDS011;40431;52.198;9.902;2023-02-01T10:20:57;10.73;;;3.83;;
17524;SDS011;40431;52.198;9.902;2023-02-01T10:23:32;9.23;;;3.70;;
17524;SDS011;40431;52.198;9.902;2023-02-01T10:26:21;14.10;;;3.80;;
17524;SDS011;40431;52.198;9.902;2023-02-01T10:28:49;7.73;;;4.93;;
17524;SDS011;40431;52.198;9.902;2023-02-01T10:31:18;9.50;;;4.53;;
17524;SDS011;40431;52.198;9.902;2023-02-01T10:33:48;7.10;;;3.50;;
17524;SDS011;40431;52.198;9.902;2023-02-01T10:36:19;8.87;;;3.60;;
17524;SDS011;40431;52.198;9.902;2023-02-01T10:38:48;11.27;;;3.73;;
17524;SDS011;40431;52.198;9.902;2023-02-01T10:41:16;11.53;;;3.67;;
17524;SDS011;40431;52.198;9.902;2023-02-01T10:43:44;7.63;;;3.37;;
17524;SDS011;40431;52.198;9.902;2023-02-01T10:46:14;7.17;;;3.53;;
17524;SDS011;40431;52.198;9.902;2023-02-01T10:48:40;6.40;;;3.20;;
17524;SDS011;40431;52.198;9.902;2023-02-01T10:51:12;11.23;;;4.57;;
17524;SDS011;40431;52.198;9.902;2023-02-01T10:53:42;10.17;;;3.87;;
17524;SDS011;40431;52.198;9.902;2023-02-01T10:56:14;8.20;;;4.50;;
17524;SDS011;40431;52.198;9.902;2023-02-01T10:58:48;7.83;;;3.00;;
17524;SDS011;40431;52.198;9.902;2023-02-01T11:01:17;10.70;;;3.93;;
17524;SDS011;40431;52.198;9.902;2023-02-01T11:03:51;6.83;;;3.80;;
17524;SDS011;40431;52.198;9.902;2023-02-01T11:06:24;11.33;;;3.63;;
17524;SDS011;40431;52.198;9.902;2023-02-01T11:08:54;6.60;;;3.30;;
17524;SDS011;40431;52.198;9.902;2023-02-01T11:11:21;6.03;;;4.20;;
17524;SDS011;40431;52.198;9.902;2023-02-01T11:13:53;11.40;;;3.63;;
17524;SDS011;40431;52.198;9.902;2023-02-01T11:16:21;9.63;;;3.97;;
17524;SDS011;40431;52.198;9.902;2023-02-01T11:18:55;6.17;;;3.57;;
17524;SDS011;40431;52.198;9.902;2023-02-01T11:21:25;6.13;;;3.57;;
17524;SDS011;40431;52.198;9.902;2023-02-01T11:23:52;10.50;;;3.67;;
17524;SDS011;40431;52.198;9.902;2023-02-01T11:26:22;11.50;;;3.30;;
17524;SDS011;40431;52.198;9.902;2023-02-01T11:28:51;9.77;;;3.97;;
17524;SDS011;40431;52.198;9.902;2023-02-01T11:31:20;9.63;;;4.60;;
17524;SDS011;40431;52.198;9.902;2023-02-01T11:33:49;8.17;;;4.10;;
17524;SDS011;40431;52.198;9.902;2023-02-01T11:36:20;7.93;;;4.10;;
17524;SDS011;40431;52.198;9.902;2023-02-01T11:38:53;10.83;;;5.07;;
17524;SDS011;40431;52.198;9.902;2023-02-01T11:41:21;10.87;;;4.37;;
17524;SDS011;40431;52.198;9.902;2023-02-01T11:43:50;11.00;;;4.13;;
17524;SDS011;40431;52.198;9.902;2023-02-01T11:46:19;10.87;;;4.13;;
17524;SDS011;40431;52.198;9.902;2023-02-01T11:48:50;6.73;;;3.87;;
17524;SDS011;40431;52.198;9.902;2023-02-01T11:51:20;11.37;;;5.23;;
17524;SDS011;40431;52.198;9.902;2023-02-01T11:54:01;11.27;;;5.07;;
17524;SDS011;40431;52.198;9.902;2023-02-01T11:56:37;8.97;;;3.97;;
17524;SDS011;40431;52.198;9.902;2023-02-01T11:59:18;10.37;;;4.27;;
17524;SDS011;40431;52.198;9.902;2023-02-01T12:02:01;12.13;;;5.00;;
17524;SDS011;40431;52.198;9.902;2023-02-01T12:07:48;8.83;;;4.33;;
17524;SDS011;40431;52.198;9.902;2023-02-01T12:10:28;10.73;;;3.50;;
17524;SDS011;40431;52.198;9.902;2023-02-01T12:13:07;12.47;;;4.47;;
17524;SDS011;40431;52.198;9.902;2023-02-01T12:15:46;8.23;;;4.13;;
17524;SDS011;40431;52.198;9.902;2023-02-01T12:18:29;11.43;;;4.60;;
17524;SDS011;40431;52.198;9.902;2023-02-01T12:21:18;6.57;;;3.90;;
17524;SDS011;40431;52.198;9.902;2023-02-01T12:23:56;8.80;;;4.17;;
17524;SDS011;40431;52.198;9.902;2023-02-01T12:26:40;8.53;;;4.13;;
17524;SDS011;40431;52.198;9.902;2023-02-01T12:29:16;6.53;;;3.43;;
17524;SDS011;40431;52.198;9.902;2023-02-01T12:32:00;11.77;;;4.13;;
17524;SDS011;40431;52.198;9.902;2023-02-01T12:34:40;8.67;;;4.60;;
17524;SDS011;40431;52.198;9.902;2023-02-01T12:37:18;8.80;;;4.00;;
17524;SDS011;40431;52.198;9.902;2023-02-01T12:39:54;8.00;;;3.53;;
17524;SDS011;40431;52.198;9.902;2023-02-01T12:42:31;10.47;;;4.20;;
17524;SDS011;40431;52.198;9.902;2023-02-01T12:45:06;13.60;;;4.93;;
17524;SDS011;40431;52.198;9.902;2023-02-01T12:47:41;9.47;;;5.10;;
17524;SDS011;40431;52.198;9.902;2023-02-01T12:50:12;7.23;;;3.93;;
17524;SDS011;40431;52.198;9.902;2023-02-01T12:52:47;8.03;;;4.20;;
17524;SDS011;40431;52.198;9.902;2023-02-01T12:55:16;6.83;;;3.90;;
17524;SDS011;40431;52.198;9.902;2023-02-01T12:57:50;7.60;;;4.40;;
17524;SDS011;40431;52.198;9.902;2023-02-01T13:00:22;8.40;;;4.23;;
17524;SDS011;40431;52.198;9.902;2023-02-01T13:02:57;6.23;;;4.10;;
17524;SDS011;40431;52.198;9.902;2023-02-01T13:05:31;7.47;;;3.87;;
17524;SDS011;40431;52.198;9.902;2023-02-01T13:08:06;5.77;;;4.20;;
17524;SDS011;40431;52.198;9.902;2023-02-01T13:10:36;8.40;;;4.63;;
17524;SDS011;40431;52.198;9.902;2023-02-01T13:13:11;11.70;;;4.13;;
17524;SDS011;40431;52.198;9.902;2023-02-01T13:15:45;9.57;;;3.87;;
17524;SDS011;40431;52.198;9.902;2023-02-01T13:18:16;7.50;;;4.13;;
17524;SDS011;40431;52.198;9.902;2023-02-01T13:20:47;7.73;;;5.07;;
17524;SDS011;40431;52.198;9.902;2023-02-01T13:23:21;8.70;;;4.27;;
17524;SDS011;40431;52.198;9.902;2023-02-01T13:25:52;4.10;;;3.40;;
17524;SDS011;40431;52.198;9.902;2023-02-01T13:28:23;4.10;;;3.03;;
17524;SDS011;40431;52.198;9.902;2023-02-01T13:31:00;4.57;;;3.20;;
17524;SDS011;40431;52.198;9.902;2023-02-01T13:33:43;5.67;;;4.30;;
17524;SDS011;40431;52.198;9.902;2023-02-01T13:39:21;5.03;;;3.70;;
17524;SDS011;40431;52.198;9.902;2023-02-01T13:42:00;5.73;;;4.03;;
17524;SDS011;40431;52.198;9.902;2023-02-01T13:44:31;7.27;;;4.33;;
17524;SDS011;40431;52.198;9.902;2023-02-01T13:47:03;3.73;;;3.30;;
17524;SDS011;40431;52.198;9.902;2023-02-01T13:49:38;7.80;;;4.30;;
17524;SDS011;40431;52.198;9.902;2023-02-01T13:52:06;5.10;;;3.70;;
17524;SDS011;40431;52.198;9.902;2023-02-01T13:54:47;4.27;;;3.57;;
17524;SDS011;40431;52.198;9.902;2023-02-01T13:57:15;3.67;;;3.03;;
17524;SDS011;40431;52.198;9.902;2023-02-01T14:00:22;1.70;;;1.60;;
17524;SDS011;40431;52.198;9.902;2023-02-01T14:03:02;4.13;;;1.60;;
17524;SDS011;40431;52.198;9.902;2023-02-01T14:08:37;1.50;;;1.40;;
17524;SDS011;40431;52.198;9.902;2023-02-01T14:11:31;2.00;;;1.90;;
17524;SDS011;40431;52.198;9.902;2023-02-01T14:23:21;1.67;;;1.57;;
17524;SDS011;40431;52.198;9.902;2023-02-01T14:28:56;2.07;;;1.97;;
17524;SDS011;40431;52.198;9.902;2023-02-01T14:31:39;1.80;;;1.70;;
17524;SDS011;40431;52.198;9.902;2023-02-01T14:34:18;2.30;;;2.20;;
17524;SDS011;40431;52.198;9.902;2023-02-01T14:36:49;1.40;;;1.40;;
17524;SDS011;40431;52.198;9.902;2023-02-01T14:39:25;1.60;;;1.60;;
17524;SDS011;40431;52.198;9.902;2023-02-01T14:41:56;1.60;;;1.50;;
17524;SDS011;40431;52.198;9.902;2023-02-01T14:44:26;2.17;;;2.07;;
17524;SDS011;40431;52.198;9.902;2023-02-01T14:47:07;2.33;;;2.23;;
17524;SDS011;40431;52.198;9.902;2023-02-01T14:49:52;1.93;;;1.77;;
17524;SDS011;40431;52.198;9.902;2023-02-01T14:52:23;2.50;;;1.80;;
17524;SDS011;40431;52.198;9.902;2023-02-01T14:55:04;2.00;;;1.77;;
17524;SDS011;40431;52.198;9.902;2023-02-01T14:57:36;1.70;;;1.60;;
17524;SDS011;40431;52.198;9.902;2023-02-01T15:00:07;2.50;;;2.23;;
17524;SDS011;40431;52.198;9.902;2023-02-01T15:02:42;3.53;;;2.60;;
17524;SDS011;40431;52.198;9.902;2023-02-01T15:05:22;2.40;;;1.80;;
17524;SDS011;40431;52.198;9.902;2023-02-01T15:07:51;1.97;;;1.87;;
17524;SDS011;40431;52.198;9.902;2023-02-01T15:10:18;1.90;;;1.80;;
17524;SDS011;40431;52.198;9.902;2023-02-01T15:12:47;2.20;;;1.80;;
17524;SDS011;40431;52.198;9.902;2023-02-01T15:15:16;2.20;;;2.00;;
17524;SDS011;40431;52.198;9.902;2023-02-01T15:17:49;2.53;;;2.23;;
17524;SDS011;40431;52.198;9.902;2023-02-01T15:20:17;2.00;;;1.80;;
17524;SDS011;40431;52.198;9.902;2023-02-01T15:22:53;4.27;;;2.40;;
17524;SDS011;40431;52.198;9.902;2023-02-01T15:25:21;1.90;;;1.70;;
17524;SDS011;40431;52.198;9.902;2023-02-01T15:27:49;2.40;;;2.10;;
17524;SDS011;40431;52.198;9.902;2023-02-01T15:30:16;2.27;;;1.93;;
17524;SDS011;40431;52.198;9.902;2023-02-01T15:32:44;2.33;;;2.00;;
17524;SDS011;40431;52.198;9.902;2023-02-01T15:38:21;2.77;;;2.30;;